• Join FlightAware (Why Join?)
  • Login
  • US Flag 
08:29PM EDT


 

Airport Tracker/Info


-or-


 

Live Flight TrackerFlight Track Log ✈ UAL4335 ✈ 22-Apr-2013 ✈ KEWR - KCVG

Flight Track Log - Related Links

Times and Time Zones

All times are in EDT time to prevent confusion due to time zone crossing. See the UAL4335 flight status page for this flight to view local times or setup timezone preferences in your user account.

Time Position Orientation Groundspeed Altitude Reporting Facility
EDT Latitude Longitude Course Direction KTS MPH feet Rate Location/Type
02:56PM 40.7167 -74.1500 270° West 172 198 2,000  Level New York TRACON
02:57PM 40.7667 -74.1000 37° Northeast 249 287 3,100 2,100 Climbing New York TRACON
02:58PM 40.8000 -74.1667 303° West 263 303 6,300 3,300 Climbing New York TRACON
02:59PM 40.6833 -74.5167 270° West  Level FlightAware Approximate
02:59PM 40.8167 -74.2667 282° West 280 322 9,700  Level New York TRACON
03:00PM 40.6834 -74.6333 270° West  Level FlightAware Approximate
03:00PM 40.8000 -74.3667 258° West 283 326 12,300  Level New York TRACON
03:01PM 40.6834 -74.7500 270° West  Level FlightAware Approximate
03:01PM 40.7833 -74.4833 259° West 326 375 13,800  Level New York TRACON
03:02PM 40.6834 -74.8667 270° West  Level FlightAware Approximate
03:04PM 40.7428 -74.7397 258° West 362 417 16,700  Level New York Center
03:05PM 40.7219 -74.8644 258° West 375 432 17,000 120 Climbing New York Center
03:06PM 40.6961 -75.0081 257° West 375 432 17,000  Level New York Center
03:07PM 40.6581 -75.1342 248° West 369 425 17,100 600 Climbing New York Center
03:08PM 40.6058 -75.2486 239° Southwest 369 425 18,300 1,380 Climbing New York Center
03:09PM 40.5533 -75.3653 239° Southwest 369 425 19,900 1,440 Climbing New York Center
03:10PM 40.5008 -75.4819 239° Southwest 369 425 21,300 1,380 Climbing New York Center
03:11PM 40.4483 -75.5983 239° Southwest 374 430 22,800 1,440 Climbing New York Center
03:12PM 40.3933 -75.7144 238° Southwest 374 430 24,200 1,380 Climbing New York Center
03:13PM 40.3386 -75.8303 238° Southwest 374 430 25,700 1,440 Climbing New York Center
03:14PM 40.2814 -75.9458 237° Southwest 374 430 27,100 1,380 Climbing New York Center
03:15PM 40.2286 -76.0533 237° Southwest 368 423 28,500 1,380 Climbing New York Center
03:16PM 40.1800 -76.1611 239° Southwest 357 411 30,000 1,380 Climbing New York Center
03:17PM 40.1364 -76.2500 237° Southwest 345 397 31,300 1,260 Climbing New York Center
03:18PM 40.0808 -76.3650 238° Southwest 340 391 32,500 1,320 Climbing New York Center
03:20PM 39.9783 -76.5986 240° Southwest 332 382 36,000 960 Climbing Washington Center
03:21PM 39.9314 -76.7008 239° Southwest 327 376 36,000  Level Washington Center
03:22PM 39.8719 -76.8161 236° Southwest 340 391 36,000  Level Washington Center
03:23PM 39.8231 -76.9261 240° Southwest 351 404 36,000  Level Washington Center
03:24PM 39.7717 -77.0358 239° Southwest 351 404 36,000  Level Washington Center
03:25PM 39.7183 -77.1428 237° Southwest 356 410 36,000  Level Washington Center
03:26PM 39.6689 -77.2522 240° Southwest 356 410 36,000  Level Washington Center
03:27PM 39.6172 -77.3614 238° Southwest 356 410 36,000  Level Washington Center
03:28PM 39.5658 -77.4706 239° Southwest 356 410 36,000  Level Washington Center
03:29PM 39.5139 -77.5794 238° Southwest 356 410 36,000  Level Washington Center
03:30PM 39.4619 -77.6883 238° Southwest 356 410 36,000  Level Washington Center
03:31PM 39.4081 -77.7994 238° Southwest 356 410 36,000  Level Washington Center
03:32PM 39.3622 -77.9136 243° Southwest 356 410 36,000  Level Washington Center
03:33PM 39.3161 -78.0247 242° Southwest 356 410 36,000  Level Washington Center
03:34PM 39.2700 -78.1411 243° Southwest 356 410 36,000  Level Washington Center
03:35PM 39.2236 -78.2547 242° Southwest 362 417 36,000  Level Washington Center
03:36PM 39.1856 -78.3739 248° West 362 417 36,000  Level Washington Center
03:37PM 39.1617 -78.4989 256° West 362 417 36,000  Level Washington Center
03:38PM 39.1356 -78.6289 256° West 367 422 36,000  Level Washington Center
03:39PM 39.1094 -78.7536 255° West 372 428 36,000  Level Washington Center
03:40PM 39.0831 -78.8808 255° West 372 428 36,000  Level Washington Center
03:41PM 39.0567 -79.0078 255° West 372 428 36,000  Level Washington Center
03:42PM 39.0322 -79.1350 256° West 372 428 36,000  Level Washington Center
03:43PM 39.0056 -79.2592 255° West 372 428 36,000  Level Washington Center
03:44PM 38.9764 -79.3886 254° West 372 428 36,000 -480 Level Washington Center
03:45PM 38.9517 -79.5156 256° West 372 428 35,100 -960 Descending Washington Center
03:46PM 38.9286 -79.6397 257° West 390 449 34,100 -600 Descending Washington Center
03:47PM 38.8969 -79.7767 253° West 396 456 34,000 -60 Descending Washington Center
03:48PM 38.8672 -79.9111 254° West 396 456 34,000  Level Washington Center
03:49PM 38.8344 -80.0611 254° West 396 456 34,000  Level Washington Center
03:50PM 38.8186 -80.2039 262° West 396 456 34,000  Level Washington Center
03:51PM 38.8147 -80.2644 265° West 406 467 34,000  Level Indianapolis Center
03:52PM 38.8108 -80.4111 268° West 411 473 34,000  Level Indianapolis Center
03:53PM 38.8083 -80.5561 269° West 408 470 34,000  Level Indianapolis Center
03:54PM 38.8033 -80.7028 268° West 411 473 34,000  Level Indianapolis Center
03:55PM 38.7981 -80.8803 268° West 417 480 34,000  Level Indianapolis Center
03:56PM 38.7919 -81.0261 267° West 410 472 34,000  Level Indianapolis Center
03:57PM 38.7875 -81.1750 268° West 416 479 34,000 -360 Level Indianapolis Center
03:58PM 38.7822 -81.3222 267° West 415 478 33,300 -900 Descending Indianapolis Center
03:59PM 38.7769 -81.4750 268° West 410 472 32,200 -1,020 Descending Indianapolis Center
04:00PM 38.7717 -81.6200 267° West 408 470 31,200 -1,080 Descending Indianapolis Center
04:01PM 38.7650 -81.7814 267° West 420 483 30,000 -1,140 Descending Indianapolis Center
04:02PM 38.7586 -81.9319 267° West 423 487 28,900 -1,200 Descending Indianapolis Center
04:03PM 38.7403 -82.0825 261° West 434 499 27,600 -1,260 Descending Indianapolis Center
04:04PM 38.7014 -82.2275 251° West 433 498 26,400 -1,200 Descending Indianapolis Center
04:05PM 38.6631 -82.3736 251° West 434 499 25,200 -1,260 Descending Indianapolis Center
04:06PM 38.6211 -82.5300 251° West 428 493 23,800 -1,380 Descending Indianapolis Center
04:07PM 38.5833 -82.6950 254° West 417 480 22,400 -1,320 Descending Indianapolis Center
04:08PM 38.5861 -82.8397 271° West 409 471 21,100 -720 Descending Indianapolis Center
04:09PM 38.5914 -82.9819 273° West 404 465 21,000 -60 Descending Indianapolis Center
04:10PM 38.5950 -83.1292 272° West 412 474 21,000 -600 Level Indianapolis Center
04:11PM 38.5994 -83.2722 272° West 406 467 19,800 -1,680 Descending Indianapolis Center
04:12PM 38.6022 -83.4133 271° West 400 460 17,600 -2,520 Descending Indianapolis Center
04:13PM 38.6064 -83.5750 272° West 390 449 14,600 -2,520 Descending Indianapolis Center
04:14PM 38.6092 -83.7022 272° West 363 418 12,400 -2,100 Descending Indianapolis Center
04:15PM 38.6122 -83.8228 272° West 343 395 10,300 -1,200 Descending Indianapolis Center
04:16PM 38.6244 -83.9425 277° West 348 400 10,000 -180 Descending Indianapolis Center
04:17PM 38.6761 -84.0431 303° West 349 402 10,000  Level Indianapolis Center
04:18PM 38.7406 -84.1681 303° West 354 407 10,000  Level Indianapolis Center
04:19PM 38.7953 -84.2733 304° West 352 405 10,000  Level Indianapolis Center
04:20PM 38.8500 -84.3783 304° West 351 404 10,000 -60 Level Indianapolis Center
04:21PM 38.9000 -84.4667 306° West 328 377 9,900 -420 Descending Cincinnati TRACON
04:22PM 38.9333 -84.5167 311° West 268 308 9,300 -660 Descending Cincinnati TRACON
04:23PM 39.0167 -84.5333 351° North 263 303 8,800 -840 Descending Cincinnati TRACON
04:24PM 39.1000 -84.5500 351° North 281 323 7,600 -1,740 Descending Cincinnati TRACON
04:25PM 39.1833 -84.5667 351° North 246 283 4,900 -2,280 Descending Cincinnati TRACON